createdAt,value
2023-04-13T00:00:16.571Z,97579.28
2023-04-13T00:02:47.037Z,97572.53
2023-04-13T00:05:17.042Z,97576.75
2023-04-13T00:07:45.063Z,97577.44
2023-04-13T00:10:13.211Z,97575.34
2023-04-13T00:12:43.020Z,97578.31
2023-04-13T00:15:11.229Z,97580.44
2023-04-13T00:17:39.380Z,97589.03
2023-04-13T00:20:12.152Z,97592.81
2023-04-13T00:22:42.212Z,97602.41
2023-04-13T00:25:11.689Z,97607.38
2023-04-13T00:27:40.191Z,97613.66
2023-04-13T00:30:09.903Z,97614.84
2023-04-13T00:32:38.875Z,97604.78
2023-04-13T00:35:08.600Z,97608.72
2023-04-13T00:37:37.232Z,97604.38
2023-04-13T00:40:08.992Z,97606.09
2023-04-13T00:42:39.197Z,97596.38
2023-04-13T00:45:09.581Z,97596.03
2023-04-13T00:47:37.956Z,97602.25
2023-04-13T00:50:07.721Z,97587.72
2023-04-13T00:52:38.342Z,97586.44
2023-04-13T00:55:09.293Z,97594.69
2023-04-13T00:57:40.296Z,97590.28
2023-04-13T01:00:10.304Z,97590.69
2023-04-13T01:02:42.583Z,97584.69
2023-04-13T01:05:15.571Z,97581.66
2023-04-13T01:07:55.513Z,97593.56
2023-04-13T01:10:29.768Z,97590.63
2023-04-13T01:13:11.416Z,97601.31
2023-04-13T01:15:52.516Z,97602.50
2023-04-13T01:18:22.719Z,97612.72
2023-04-13T01:20:54.836Z,97612.09
2023-04-13T01:23:39.084Z,97610.88
2023-04-13T01:26:09.054Z,97608.44
2023-04-13T01:28:40.855Z,97603.09
2023-04-13T01:31:12.490Z,97601.50
2023-04-13T01:33:41.779Z,97595.78
2023-04-13T01:36:12.605Z,97599.84
2023-04-13T01:38:44.556Z,97598.66
2023-04-13T01:41:13.937Z,97592.81
2023-04-13T01:43:47.224Z,97599.75
2023-04-13T01:46:20.079Z,97604.19
2023-04-13T01:49:01.846Z,97599.75
2023-04-13T01:51:45.340Z,97604.44
2023-04-13T01:54:21.366Z,97592.50
2023-04-13T01:56:50.221Z,97597.97
2023-04-13T01:59:22.500Z,97595.41
2023-04-13T02:01:50.714Z,97588.13
2023-04-13T02:04:18.898Z,97593.84
2023-04-13T02:06:48.268Z,97579.44
2023-04-13T02:09:16.229Z,97583.00
2023-04-13T02:11:44.353Z,97584.66
2023-04-13T02:14:12.223Z,97579.72
2023-04-13T02:16:41.908Z,97581.44
2023-04-13T02:19:10.676Z,97580.06
2023-04-13T02:21:38.540Z,97584.53
2023-04-13T02:24:08.141Z,97590.44
2023-04-13T02:26:37.668Z,97586.69
2023-04-13T02:29:05.681Z,97584.97
2023-04-13T02:31:33.779Z,97580.47
2023-04-13T02:34:06.316Z,97587.81
2023-04-13T02:36:34.763Z,97584.25
2023-04-13T02:39:09.137Z,97586.53
2023-04-13T02:41:37.199Z,97577.13
2023-04-13T02:44:05.071Z,97578.63
2023-04-13T02:46:43.335Z,97581.47
2023-04-13T02:49:17.474Z,97577.56
2023-04-13T02:51:57.642Z,97583.63
2023-04-13T02:54:43.263Z,97579.28
2023-04-13T02:57:13.344Z,97588.66
2023-04-13T02:59:42.480Z,97578.75
2023-04-13T03:02:12.710Z,97584.38
2023-04-13T03:04:43.245Z,97591.56
2023-04-13T03:07:14.408Z,97594.69
2023-04-13T03:09:47.335Z,97597.91
2023-04-13T03:12:17.089Z,97597.16
2023-04-13T03:14:47.525Z,97606.84
2023-04-13T03:17:18.529Z,97597.25
2023-04-13T03:19:50.871Z,97608.03
2023-04-13T03:22:21.321Z,97602.53
2023-04-13T03:24:50.149Z,97597.78
2023-04-13T03:27:25.101Z,97597.22
2023-04-13T03:29:55.937Z,97617.69
2023-04-13T03:32:24.139Z,97609.50
2023-04-13T03:35:00.603Z,97611.34
2023-04-13T03:37:32.461Z,97622.34
2023-04-13T03:40:12.072Z,97625.38
2023-04-13T03:42:48.945Z,97627.13
2023-04-13T03:45:17.404Z,97628.69
2023-04-13T03:47:45.918Z,97624.28
2023-04-13T03:50:15.838Z,97627.00
2023-04-13T03:52:44.083Z,97628.47
2023-04-13T03:55:12.039Z,97640.75
2023-04-13T03:57:41.610Z,97645.31
2023-04-13T04:00:16.518Z,97638.75
2023-04-13T04:03:09.626Z,97646.84
2023-04-13T04:05:50.571Z,97647.34
2023-04-13T04:08:18.836Z,97650.44
2023-04-13T04:10:49.375Z,97651.41
2023-04-13T04:13:18.864Z,97656.78
2023-04-13T04:15:51.103Z,97655.25
2023-04-13T04:18:19.034Z,97651.91
2023-04-13T04:20:47.589Z,97644.50
2023-04-13T04:23:19.784Z,97643.16
2023-04-13T04:25:59.374Z,97649.28
2023-04-13T04:28:38.344Z,97643.50
2023-04-13T04:31:10.415Z,97655.25
2023-04-13T04:33:39.876Z,97653.66
2023-04-13T04:36:14.068Z,97657.41
2023-04-13T04:38:58.254Z,97651.63
2023-04-13T04:41:31.477Z,97649.28
2023-04-13T04:44:08.102Z,97654.06
2023-04-13T04:46:41.687Z,97659.03
2023-04-13T04:49:13.312Z,97651.16
2023-04-13T04:51:41.971Z,97653.03
2023-04-13T04:54:14.295Z,97648.56
2023-04-13T04:56:42.662Z,97658.34
2023-04-13T04:59:10.603Z,97655.63
2023-04-13T05:01:50.027Z,97653.81
2023-04-13T05:04:18.109Z,97656.06
2023-04-13T05:06:47.182Z,97654.25
2023-04-13T05:09:20.629Z,97656.91
2023-04-13T05:11:52.469Z,97653.53
2023-04-13T05:14:23.598Z,97658.91
2023-04-13T05:16:52.599Z,97652.31
2023-04-13T05:19:31.117Z,97649.69
2023-04-13T05:22:22.163Z,97657.63
2023-04-13T05:25:01.145Z,97657.81
2023-04-13T05:27:31.590Z,97652.06
2023-04-13T05:29:59.666Z,97654.59
2023-04-13T05:32:28.176Z,97658.78
2023-04-13T05:35:01.034Z,97668.50
2023-04-13T05:37:29.793Z,97668.38
2023-04-13T05:39:57.652Z,97674.22
2023-04-13T05:42:34.289Z,97672.59
2023-04-13T05:45:04.094Z,97674.38
2023-04-13T05:47:35.166Z,97674.53
2023-04-13T05:50:13.003Z,97677.16
2023-04-13T05:52:42.590Z,97685.38
2023-04-13T05:55:11.702Z,97685.50
2023-04-13T05:57:45.629Z,97685.22
2023-04-13T06:00:19.256Z,97686.25
2023-04-13T06:02:59.498Z,97698.47
2023-04-13T06:05:28.967Z,97693.66
2023-04-13T06:08:02.766Z,97696.13
2023-04-13T06:10:39.836Z,97706.09
2023-04-13T06:13:42.628Z,97700.41
2023-04-13T06:16:55.851Z,97696.78
2023-04-13T06:19:46.600Z,97700.34
2023-04-13T06:22:18.117Z,97700.78
2023-04-13T06:25:06.441Z,97698.81
2023-04-13T06:27:37.486Z,97695.63
2023-04-13T06:30:15.933Z,97708.41
2023-04-13T06:32:48.599Z,97705.03
2023-04-13T06:35:20.734Z,97710.38
2023-04-13T06:37:52.397Z,97719.16
2023-04-13T06:40:28.580Z,97722.78
2023-04-13T06:43:26.283Z,97713.94
2023-04-13T06:46:42.016Z,97713.94
2023-04-13T06:49:15.223Z,97722.44
2023-04-13T06:51:44.703Z,97716.97
2023-04-13T06:54:12.715Z,97718.69
2023-04-13T06:56:47.031Z,97717.47
2023-04-13T06:59:20.124Z,97710.75
2023-04-13T07:01:54.853Z,97715.13
2023-04-13T07:04:26.531Z,97710.47
2023-04-13T07:06:59.848Z,97709.69
2023-04-13T07:09:30.067Z,97722.88
2023-04-13T07:11:59.378Z,97714.59
2023-04-13T07:14:28.894Z,97712.31
2023-04-13T07:17:00.475Z,97713.44
2023-04-13T07:19:31.677Z,97706.03
2023-04-13T07:22:01.104Z,97706.25
2023-04-13T07:24:31.433Z,97708.38
2023-04-13T07:27:01.937Z,97705.63
2023-04-13T07:29:29.943Z,97707.59
2023-04-13T07:32:06.699Z,97706.53
2023-04-13T07:34:37.992Z,97705.22
2023-04-13T07:37:06.030Z,97705.44
2023-04-13T07:39:34.332Z,97705.97
2023-04-13T07:42:03.093Z,97701.88
2023-04-13T07:44:39.963Z,97706.81
2023-04-13T07:47:14.161Z,97713.31
2023-04-13T07:49:44.382Z,97706.53
2023-04-13T07:52:16.864Z,97703.13
2023-04-13T07:54:46.800Z,97716.16
2023-04-13T07:57:18.618Z,97707.81
2023-04-13T08:00:06.978Z,97721.97
2023-04-13T08:02:49.661Z,97718.34
2023-04-13T08:05:25.274Z,97725.19
2023-04-13T08:08:01.249Z,97721.31
2023-04-13T08:10:48.537Z,97729.75
2023-04-13T08:13:19.832Z,97728.56
2023-04-13T08:15:59.600Z,97729.44
2023-04-13T08:18:59.973Z,97730.38
2023-04-13T08:21:53.114Z,97725.19
2023-04-13T08:24:21.737Z,97722.88
2023-04-13T08:26:52.381Z,97724.34
2023-04-13T08:29:25.543Z,97719.91
2023-04-13T08:31:58.153Z,97718.97
2023-04-13T08:34:30.557Z,97721.38
2023-04-13T08:37:00.591Z,97719.53
2023-04-13T08:39:34.620Z,97725.41
2023-04-13T08:42:04.256Z,97733.59
2023-04-13T08:44:43.068Z,97733.22
2023-04-13T08:47:11.910Z,97728.91
2023-04-13T08:49:43.874Z,97742.31
2023-04-13T08:52:31.969Z,97740.41
2023-04-13T08:55:02.275Z,97736.38
2023-04-13T08:57:34.382Z,97743.34
2023-04-13T09:00:06.466Z,97738.91
2023-04-13T09:02:52.478Z,97744.75
2023-04-13T09:05:40.714Z,97730.16
2023-04-13T09:08:13.767Z,97730.28
2023-04-13T09:10:46.369Z,97732.25
2023-04-13T09:13:19.526Z,97728.66
2023-04-13T09:15:49.451Z,97729.50
2023-04-13T09:18:51.548Z,97713.06
2023-04-13T09:21:21.866Z,97722.69
2023-04-13T09:23:58.853Z,97720.81
2023-04-13T09:26:29.335Z,97727.00
2023-04-13T09:28:58.744Z,97722.78
2023-04-13T09:31:28.746Z,97719.16
2023-04-13T09:33:58.207Z,97722.81
2023-04-13T09:36:29.654Z,97717.78
2023-04-13T09:38:58.591Z,97723.50
2023-04-13T09:41:36.442Z,97716.25
2023-04-13T09:44:18.171Z,97723.34
2023-04-13T09:46:46.444Z,97723.34
2023-04-13T09:49:15.874Z,97723.34
2023-04-13T09:51:46.058Z,97721.97
2023-04-13T09:54:14.222Z,97724.34
2023-04-13T09:56:48.744Z,97723.91
2023-04-13T09:59:19.938Z,97724.47
2023-04-13T10:01:50.167Z,97720.69
2023-04-13T10:04:19.826Z,97725.59
2023-04-13T10:06:50.515Z,97721.81
2023-04-13T10:09:21.239Z,97727.28
2023-04-13T10:11:52.532Z,97725.31
2023-04-13T10:14:26.407Z,97719.72
2023-04-13T10:17:21.199Z,97718.59
2023-04-13T10:19:56.064Z,97719.06
2023-04-13T10:22:48.281Z,97712.44
2023-04-13T10:25:32.779Z,97704.41
2023-04-13T10:28:14.492Z,97695.75
2023-04-13T10:30:50.969Z,97711.13
2023-04-13T10:33:19.113Z,97712.50
2023-04-13T10:35:56.829Z,97706.09
2023-04-13T10:38:27.589Z,97713.31
2023-04-13T10:40:55.932Z,97715.28
2023-04-13T10:43:30.711Z,97719.47
2023-04-13T10:46:11.032Z,97703.56
2023-04-13T10:48:39.089Z,97714.72
2023-04-13T10:51:07.138Z,97702.91
2023-04-13T10:53:37.623Z,97696.91
2023-04-13T10:56:15.818Z,97705.13
2023-04-13T10:58:43.807Z,97712.25
2023-04-13T11:01:12.125Z,97711.22
2023-04-13T11:03:44.970Z,97703.88
2023-04-13T11:06:21.826Z,97707.41
2023-04-13T11:09:00.186Z,97710.22
2023-04-13T11:11:29.344Z,97705.78
2023-04-13T11:13:58.140Z,97717.97
2023-04-13T11:16:26.400Z,97724.69
2023-04-13T11:19:02.513Z,97722.72
2023-04-13T11:21:31.875Z,97730.31
2023-04-13T11:24:02.744Z,97745.34
2023-04-13T11:26:35.001Z,97728.63
2023-04-13T11:29:04.200Z,97735.91
2023-04-13T11:31:39.940Z,97730.47
2023-04-13T11:34:09.642Z,97740.31
2023-04-13T11:36:39.138Z,97739.22
2023-04-13T11:39:11.110Z,97730.75
2023-04-13T11:41:42.524Z,97739.34
2023-04-13T11:44:12.508Z,97725.88
2023-04-13T11:46:40.694Z,97725.47
2023-04-13T11:49:09.006Z,97715.75
2023-04-13T11:51:37.640Z,97717.66
2023-04-13T11:54:06.722Z,97714.16
2023-04-13T11:56:36.106Z,97706.72
2023-04-13T11:59:04.026Z,97705.63
2023-04-13T12:01:34.429Z,97704.75
2023-04-13T12:04:14.562Z,97698.97
2023-04-13T12:06:46.058Z,97707.50
2023-04-13T12:09:19.219Z,97705.50
2023-04-13T12:12:15.312Z,97690.53
2023-04-13T12:19:51.963Z,97699.56
2023-04-13T12:22:23.899Z,97714.44
2023-04-13T12:24:53.508Z,97710.53
2023-04-13T12:27:24.672Z,97719.41
2023-04-13T12:29:53.406Z,97713.72
2023-04-13T12:32:21.472Z,97715.84
2023-04-13T12:34:49.553Z,97718.28
2023-04-13T12:37:17.623Z,97706.50
2023-04-13T12:39:45.647Z,97711.28
2023-04-13T12:42:13.914Z,97694.16
2023-04-13T12:44:43.656Z,97691.72
2023-04-13T12:47:11.998Z,97691.28
2023-04-13T12:49:40.049Z,97697.63
2023-04-13T12:52:08.307Z,97695.56
2023-04-13T12:54:36.692Z,97693.00
2023-04-13T12:57:04.785Z,97694.94
2023-04-13T12:59:32.921Z,97687.09
2023-04-13T13:02:02.313Z,97684.63
2023-04-13T13:04:30.835Z,97688.00
2023-04-13T13:06:59.055Z,97687.81
2023-04-13T13:09:27.215Z,97692.13
2023-04-13T13:11:56.131Z,97686.31
2023-04-13T13:14:24.292Z,97681.34
2023-04-13T13:16:53.107Z,97676.97
2023-04-13T13:19:22.999Z,97689.25
2023-04-13T13:21:51.016Z,97681.66
2023-04-13T13:24:19.004Z,97679.00
2023-04-13T13:29:23.885Z,97679.09
2023-04-13T13:31:52.585Z,97678.56
2023-04-13T13:34:22.100Z,97683.00
2023-04-13T13:36:50.083Z,97684.97
2023-04-13T13:39:21.118Z,97688.84
2023-04-13T13:41:49.091Z,97695.91
2023-04-13T13:44:17.303Z,97696.44
2023-04-13T13:46:45.373Z,97687.78
2023-04-13T13:49:13.303Z,97680.47
2023-04-13T13:52:02.583Z,97692.50
2023-04-13T13:54:34.487Z,97688.97
2023-04-13T13:57:02.988Z,97689.88
2023-04-13T13:59:30.908Z,97685.97
2023-04-13T14:02:01.365Z,97694.38
2023-04-13T14:04:29.430Z,97697.66
2023-04-13T14:06:57.675Z,97699.78
2023-04-13T14:09:35.245Z,97707.06
2023-04-13T14:12:30.316Z,97700.34
2023-04-13T14:15:20.791Z,97697.81
2023-04-13T14:18:10.893Z,97694.34
2023-04-13T14:21:06.030Z,97697.75
2023-04-13T14:24:00.998Z,97701.91
2023-04-13T14:26:48.975Z,97697.84
2023-04-13T14:29:29.627Z,97695.19
2023-04-13T14:32:28.693Z,97702.78
2023-04-13T14:35:19.193Z,97698.69
2023-04-13T14:38:00.729Z,97696.66
2023-04-13T14:41:01.530Z,97707.00
2023-04-13T14:43:34.192Z,97707.66
2023-04-13T14:46:36.656Z,97703.97
2023-04-13T14:49:22.437Z,97705.72
2023-04-13T14:52:00.178Z,97706.56
2023-04-13T14:54:42.559Z,97703.91
2023-04-13T14:57:17.747Z,97713.09
2023-04-13T15:00:24.309Z,97714.75
2023-04-13T15:02:56.574Z,97727.00
2023-04-13T15:05:30.506Z,97734.09
2023-04-13T15:08:10.018Z,97743.09
2023-04-13T15:11:02.074Z,97747.28
2023-04-13T15:13:51.937Z,97747.56
2023-04-13T15:16:35.055Z,97747.19
2023-04-13T15:19:20.484Z,97752.22
2023-04-13T15:22:07.770Z,97757.09
2023-04-13T15:25:11.342Z,97762.31
2023-04-13T15:27:55.989Z,97754.19
2023-04-13T15:30:38.813Z,97759.84
2023-04-13T15:33:29.580Z,97760.72
2023-04-13T15:36:07.095Z,97768.44
2023-04-13T15:39:12.347Z,97782.38
2023-04-13T15:41:52.956Z,97775.78
2023-04-13T15:44:43.548Z,97778.50
2023-04-13T15:47:34.379Z,97773.13
2023-04-13T15:50:35.309Z,97763.34
2023-04-13T15:53:13.050Z,97773.72
2023-04-13T15:55:56.273Z,97757.16
2023-04-13T15:58:41.080Z,97759.09
2023-04-13T16:01:39.207Z,97762.78
2023-04-13T16:04:18.893Z,97765.25
2023-04-13T16:07:23.876Z,97758.31
2023-04-13T16:10:05.137Z,97764.34
2023-04-13T16:12:49.506Z,97771.91
2023-04-13T16:15:49.778Z,97780.22
2023-04-13T16:18:38.854Z,97784.88
2023-04-13T16:21:22.209Z,97795.31
2023-04-13T16:24:15.853Z,97794.81
2023-04-13T16:26:54.011Z,97796.94
2023-04-13T16:29:21.992Z,97793.59
2023-04-13T16:31:50.027Z,97806.75
2023-04-13T16:34:26.192Z,97807.44
2023-04-13T16:36:54.717Z,97812.97
2023-04-13T16:39:24.064Z,97820.19
2023-04-13T16:41:52.518Z,97822.44
2023-04-13T16:44:20.596Z,97817.47
2023-04-13T16:46:48.500Z,97811.59
2023-04-13T16:49:16.931Z,97821.72
2023-04-13T16:51:44.894Z,97824.72
2023-04-13T16:54:14.101Z,97836.47
2023-04-13T16:56:43.716Z,97846.28
2023-04-13T16:59:11.950Z,97846.94
2023-04-13T17:01:40.000Z,97849.03
2023-04-13T17:04:08.869Z,97853.78
2023-04-13T17:06:38.906Z,97851.25
2023-04-13T17:09:09.978Z,97849.09
2023-04-13T17:11:37.853Z,97850.97
2023-04-13T17:14:09.675Z,97850.25
2023-04-13T17:16:37.662Z,97844.63
2023-04-13T17:19:09.206Z,97846.44
2023-04-13T17:21:38.045Z,97848.66
2023-04-13T17:24:06.915Z,97852.28
2023-04-13T17:26:34.930Z,97859.22
2023-04-13T17:29:03.487Z,97858.16
2023-04-13T17:31:32.873Z,97854.22
2023-04-13T17:34:01.105Z,97862.06
2023-04-13T17:36:28.916Z,97865.16
2023-04-13T17:38:58.848Z,97868.38
2023-04-13T17:41:27.184Z,97869.94
2023-04-13T17:43:55.165Z,97871.47
2023-04-13T17:46:23.072Z,97873.50
2023-04-13T17:48:52.284Z,97873.53
2023-04-13T17:51:20.332Z,97875.91
2023-04-13T17:53:48.501Z,97876.78
2023-04-13T17:56:17.071Z,97874.41
2023-04-13T17:58:45.458Z,97871.31
2023-04-13T18:01:13.414Z,97873.44
2023-04-13T18:03:41.613Z,97868.41
2023-04-13T18:06:11.236Z,97872.03
2023-04-13T18:08:39.154Z,97867.88
2023-04-13T18:11:07.202Z,97863.09
2023-04-13T18:13:35.326Z,97873.41
2023-04-13T18:16:04.337Z,97870.88
2023-04-13T18:18:32.338Z,97872.69
2023-04-13T18:21:02.177Z,97875.91
2023-04-13T18:23:31.528Z,97884.59
2023-04-13T18:25:59.760Z,97887.13
2023-04-13T18:28:29.391Z,97880.16
2023-04-13T18:31:00.296Z,97885.72
2023-04-13T18:33:28.719Z,97882.69
2023-04-13T18:35:57.402Z,97878.16
2023-04-13T18:38:25.834Z,97881.81
2023-04-13T18:40:55.320Z,97891.38
2023-04-13T18:43:23.613Z,97893.03
2023-04-13T18:45:51.586Z,97888.94
2023-04-13T18:48:19.766Z,97884.31
2023-04-13T18:50:48.409Z,97886.34
2023-04-13T18:53:16.565Z,97882.88
2023-04-13T18:55:50.001Z,97882.53
2023-04-13T18:58:22.623Z,97888.06
2023-04-13T19:00:50.688Z,97894.00
2023-04-13T19:03:18.936Z,97895.00
2023-04-13T19:05:47.485Z,97893.28
2023-04-13T19:08:16.863Z,97886.78
2023-04-13T19:10:45.265Z,97894.38
2023-04-13T19:13:15.036Z,97885.63
2023-04-13T19:15:46.868Z,97885.94
2023-04-13T19:18:14.705Z,97898.41
2023-04-13T19:20:42.592Z,97895.88
2023-04-13T19:23:10.442Z,97891.66
2023-04-13T19:25:39.355Z,97892.91
2023-04-13T19:28:07.874Z,97883.44
2023-04-13T19:30:36.248Z,97887.09
2023-04-13T19:33:08.312Z,97881.13
2023-04-13T19:35:36.727Z,97881.13
2023-04-13T19:38:08.476Z,97895.81
2023-04-13T19:40:37.534Z,97903.22
2023-04-13T19:43:05.834Z,97911.78
2023-04-13T19:45:34.033Z,97910.81
2023-04-13T19:48:02.192Z,97910.09
2023-04-13T19:50:32.209Z,97920.91
2023-04-13T19:53:00.200Z,97918.84
2023-04-13T19:55:28.528Z,97922.75
2023-04-13T19:57:56.793Z,97917.03
2023-04-13T20:00:26.901Z,97912.50
2023-04-13T20:02:59.380Z,97913.84
2023-04-13T20:05:27.593Z,97906.00
2023-04-13T20:07:56.943Z,97912.75
2023-04-13T20:10:25.037Z,97923.06
2023-04-13T20:12:53.114Z,97919.94
2023-04-13T20:15:24.225Z,97923.53
2023-04-13T20:17:52.890Z,97925.91
2023-04-13T20:20:23.740Z,97930.56
2023-04-13T20:22:51.941Z,97928.31
2023-04-13T20:25:21.240Z,97923.03
2023-04-13T20:27:49.090Z,97932.88
2023-04-13T20:30:17.083Z,97936.22
2023-04-13T20:32:45.097Z,97934.19
2023-04-13T20:35:16.092Z,97936.09
2023-04-13T20:37:43.994Z,97943.44
2023-04-13T20:40:12.571Z,97949.41
2023-04-13T20:42:43.071Z,97955.38
2023-04-13T20:45:15.133Z,97951.81
2023-04-13T20:47:43.275Z,97953.13
2023-04-13T20:50:12.938Z,97959.94
2023-04-13T20:52:41.747Z,97962.56
2023-04-13T20:55:11.628Z,97946.53
2023-04-13T20:57:42.146Z,97952.16
2023-04-13T21:00:15.442Z,97947.59
2023-04-13T21:02:44.485Z,97940.06
2023-04-13T21:05:12.798Z,97935.75
2023-04-13T21:07:41.819Z,97937.41
2023-04-13T21:10:11.091Z,97929.88
2023-04-13T21:12:39.120Z,97923.91
2023-04-13T21:15:09.981Z,97918.25
2023-04-13T21:17:38.172Z,97922.81
2023-04-13T21:20:09.028Z,97913.47
2023-04-13T21:22:37.149Z,97913.38
2023-04-13T21:25:05.917Z,97911.69
2023-04-13T21:27:33.828Z,97907.84
2023-04-13T21:30:02.263Z,97906.19
2023-04-13T21:32:31.728Z,97905.81
2023-04-13T21:35:00.510Z,97900.53
2023-04-13T21:37:29.496Z,97899.34
2023-04-13T21:39:57.823Z,97901.75
2023-04-13T21:42:25.776Z,97911.44
2023-04-13T21:44:55.318Z,97915.16
2023-04-13T21:47:23.399Z,97911.91
2023-04-13T21:49:52.743Z,97917.78
2023-04-13T21:52:20.716Z,97915.28
2023-04-13T21:54:50.372Z,97912.66
2023-04-13T21:57:21.995Z,97924.84
2023-04-13T21:59:54.163Z,97922.34
2023-04-13T22:02:25.237Z,97926.41
2023-04-13T22:04:54.698Z,97916.09
2023-04-13T22:07:35.221Z,97903.16
2023-04-13T22:10:10.607Z,97900.53
2023-04-13T22:12:38.579Z,97900.06
2023-04-13T22:15:07.684Z,97892.88
2023-04-13T22:17:36.272Z,97904.84
2023-04-13T22:20:06.387Z,97898.50
2023-04-13T22:22:34.390Z,97897.66
2023-04-13T22:25:02.444Z,97899.13
2023-04-13T22:27:30.705Z,97901.03
2023-04-13T22:29:58.667Z,97906.31
2023-04-13T22:32:28.374Z,97907.63
2023-04-13T22:34:56.412Z,97910.03
2023-04-13T22:37:31.619Z,97912.75
2023-04-13T22:40:00.921Z,97918.38
2023-04-13T22:42:28.952Z,97924.38
2023-04-13T22:44:57.660Z,97930.34
2023-04-13T22:47:25.725Z,97921.38
2023-04-13T22:49:53.693Z,97922.59
2023-04-13T22:52:21.838Z,97909.28
2023-04-13T22:54:52.178Z,97908.94
2023-04-13T22:57:20.292Z,97907.13
2023-04-13T22:59:48.160Z,97898.13
2023-04-13T23:02:16.126Z,97902.69
2023-04-13T23:04:44.136Z,97892.63
2023-04-13T23:07:12.141Z,97897.19
2023-04-13T23:09:42.632Z,97898.88
2023-04-13T23:12:11.915Z,97890.50
2023-04-13T23:14:40.427Z,97882.59
2023-04-13T23:17:08.397Z,97892.88
2023-04-13T23:19:36.270Z,97895.59
2023-04-13T23:22:04.177Z,97897.41
2023-04-13T23:24:32.144Z,97906.31
2023-04-13T23:27:00.050Z,97901.03
2023-04-13T23:29:29.395Z,97907.25
2023-04-13T23:31:57.690Z,97903.38
2023-04-13T23:34:25.698Z,97906.88
2023-04-13T23:36:53.599Z,97906.88
2023-04-13T23:39:23.000Z,97906.41
2023-04-13T23:41:50.903Z,97908.38
2023-04-13T23:44:18.761Z,97916.53
2023-04-13T23:46:48.218Z,97907.72
2023-04-13T23:49:16.244Z,97903.78
2023-04-13T23:51:44.512Z,97898.09
2023-04-13T23:54:12.630Z,97894.78
2023-04-13T23:56:40.617Z,97895.72
2023-04-13T23:59:08.486Z,97898.94
